createdAt,value
2017-12-12T00:02:01.365Z,8.88
2017-12-12T00:04:30.274Z,8.73
2017-12-12T00:06:59.116Z,8.43
2017-12-12T00:09:28.723Z,7.47
2017-12-12T00:11:58.325Z,7.70
2017-12-12T00:14:27.945Z,8.93
2017-12-12T00:16:57.554Z,19.20
2017-12-12T00:19:27.152Z,7.00
2017-12-12T00:21:55.981Z,5.97
2017-12-12T00:24:24.799Z,6.07
2017-12-12T00:26:54.203Z,6.30
2017-12-12T00:29:23.029Z,6.45
2017-12-12T00:31:51.862Z,6.60
2017-12-12T00:34:20.684Z,6.57
2017-12-12T00:36:49.507Z,6.68
2017-12-12T00:39:19.104Z,6.93
2017-12-12T00:41:47.922Z,5.75
2017-12-12T00:44:16.750Z,12.63
2017-12-12T00:46:45.573Z,4.75
2017-12-12T00:49:14.410Z,5.03
2017-12-12T00:51:43.241Z,5.40
2017-12-12T00:54:12.063Z,4.62
2017-12-12T00:56:42.232Z,6.93
2017-12-12T00:59:11.073Z,10.02
2017-12-12T01:01:41.657Z,5.32
2017-12-12T01:04:11.485Z,8.50
2017-12-12T01:06:40.316Z,5.57
2017-12-12T01:09:09.914Z,7.43
2017-12-12T01:11:40.498Z,7.90
2017-12-12T01:14:09.316Z,4.72
2017-12-12T01:16:38.153Z,6.82
2017-12-12T01:19:07.005Z,6.47
2017-12-12T01:21:36.599Z,6.00
2017-12-12T01:24:05.421Z,8.40
2017-12-12T01:26:35.018Z,7.40
2017-12-12T01:29:04.686Z,5.97
2017-12-12T01:31:33.514Z,7.57
2017-12-12T01:34:03.113Z,10.15
2017-12-12T01:36:32.868Z,5.57
2017-12-12T01:39:01.385Z,8.18
2017-12-12T01:41:29.595Z,8.85
2017-12-12T01:43:58.574Z,6.20
2017-12-12T01:46:28.112Z,7.05
2017-12-12T01:48:57.074Z,7.60
2017-12-12T01:51:25.282Z,8.65
2017-12-12T01:53:54.686Z,6.53
2017-12-12T01:56:23.221Z,8.48
2017-12-12T01:58:51.756Z,9.25
2017-12-12T02:01:20.585Z,8.65
2017-12-12T02:03:49.133Z,8.77
2017-12-12T02:06:17.983Z,9.38
2017-12-12T02:08:46.839Z,10.20
2017-12-12T02:11:15.373Z,8.93
2017-12-12T02:13:43.889Z,13.00
2017-12-12T02:16:12.426Z,11.05
2017-12-12T02:18:40.627Z,8.45
2017-12-12T02:21:10.484Z,8.13
2017-12-12T02:23:38.710Z,10.73
2017-12-12T02:26:07.687Z,9.38
2017-12-12T02:28:35.893Z,8.15
2017-12-12T02:31:04.104Z,14.77
2017-12-12T02:33:32.306Z,7.80
2017-12-12T02:36:01.301Z,10.57
2017-12-12T02:38:29.506Z,7.95
2017-12-12T02:40:58.486Z,10.85
2017-12-12T02:43:27.475Z,11.30
2017-12-12T02:45:55.678Z,8.35
2017-12-12T02:48:23.893Z,12.07
2017-12-12T02:50:52.105Z,8.20
2017-12-12T02:53:20.641Z,8.27
2017-12-12T02:55:49.069Z,8.98
2017-12-12T02:58:18.049Z,8.82
2017-12-12T03:00:46.566Z,12.80
2017-12-12T03:03:15.534Z,9.50
2017-12-12T03:05:43.734Z,8.65
2017-12-12T03:08:12.711Z,5.95
2017-12-12T03:10:42.005Z,7.75
2017-12-12T03:13:10.208Z,7.20
2017-12-12T03:15:38.406Z,9.98
2017-12-12T03:18:06.613Z,6.35
2017-12-12T03:20:34.817Z,6.60
2017-12-12T03:23:04.100Z,6.25
2017-12-12T03:25:32.965Z,7.05
2017-12-12T03:28:01.802Z,6.62
2017-12-12T03:30:31.082Z,7.70
2017-12-12T03:33:00.012Z,6.85
2017-12-12T03:35:29.889Z,5.32
2017-12-12T03:37:58.414Z,7.25
2017-12-12T03:40:27.284Z,6.12
2017-12-12T03:42:56.252Z,11.68
2017-12-12T03:45:24.902Z,6.07
2017-12-12T03:47:53.737Z,7.10
2017-12-12T03:50:23.226Z,6.37
2017-12-12T03:52:52.072Z,6.93
2017-12-12T03:55:21.237Z,5.85
2017-12-12T03:57:49.434Z,7.32
2017-12-12T04:00:18.412Z,7.78
2017-12-12T04:02:46.921Z,9.25
2017-12-12T04:05:15.121Z,5.43
2017-12-12T04:07:43.330Z,6.68
2017-12-12T04:10:12.776Z,9.30
2017-12-12T04:12:41.277Z,7.85
2017-12-12T04:15:09.818Z,6.60
2017-12-12T04:17:38.325Z,6.25
2017-12-12T04:20:06.849Z,7.00
2017-12-12T04:22:35.041Z,8.77
2017-12-12T04:25:04.078Z,8.18
2017-12-12T04:27:32.285Z,7.87
2017-12-12T04:30:00.491Z,8.30
2017-12-12T04:32:29.042Z,5.85
2017-12-12T04:34:57.905Z,7.25
2017-12-12T04:37:26.754Z,6.12
2017-12-12T04:39:54.955Z,7.97
2017-12-12T04:42:24.263Z,8.00
2017-12-12T04:44:53.237Z,5.97
2017-12-12T04:47:21.738Z,5.30
2017-12-12T04:49:50.579Z,6.72
2017-12-12T04:52:20.218Z,6.37
2017-12-12T04:54:48.796Z,6.78
2017-12-12T04:57:17.630Z,7.00
2017-12-12T04:59:46.172Z,13.80
2017-12-12T05:02:15.005Z,6.55
2017-12-12T05:04:43.213Z,6.43
2017-12-12T05:07:11.456Z,9.00
2017-12-12T05:09:40.293Z,8.48
2017-12-12T05:14:41.866Z,6.90
2017-12-12T05:17:10.077Z,6.45
2017-12-12T05:19:38.606Z,8.35
2017-12-12T05:22:08.957Z,6.90
2017-12-12T05:24:37.149Z,5.03
2017-12-12T05:27:05.677Z,5.75
2017-12-12T05:29:33.869Z,5.60
2017-12-12T05:32:02.780Z,5.60
2017-12-12T05:34:37.344Z,3.80
2017-12-12T05:37:06.192Z,3.70
2017-12-12T05:39:34.706Z,4.07
2017-12-12T05:42:03.984Z,4.18
2017-12-12T05:44:32.366Z,5.90
2017-12-12T05:47:00.565Z,1.83
2017-12-12T05:49:29.945Z,1.37
2017-12-12T05:51:58.148Z,2.08
2017-12-12T05:54:27.753Z,1.25
2017-12-12T05:56:57.410Z,1.35
2017-12-12T05:59:25.612Z,1.92
2017-12-12T06:01:54.162Z,1.15
2017-12-12T06:04:23.974Z,1.05
2017-12-12T06:06:52.849Z,2.12
2017-12-12T06:09:24.021Z,1.10
2017-12-12T06:11:52.261Z,2.42
2017-12-12T06:14:20.772Z,1.45
2017-12-12T06:16:49.621Z,2.55
2017-12-12T06:19:18.932Z,1.33
2017-12-12T06:21:47.141Z,1.60
2017-12-12T06:24:15.998Z,3.05
2017-12-12T06:26:44.864Z,2.85
2017-12-12T06:29:13.373Z,1.10
2017-12-12T06:31:41.981Z,1.20
2017-12-12T06:34:11.457Z,1.40
2017-12-12T06:36:40.382Z,2.75
2017-12-12T06:39:08.944Z,5.87
2017-12-12T06:41:37.783Z,5.05
2017-12-12T06:44:06.343Z,1.42
2017-12-12T06:46:34.904Z,1.65
2017-12-12T06:49:03.116Z,1.27
2017-12-12T06:51:32.263Z,1.48
2017-12-12T06:54:01.293Z,1.52
2017-12-12T06:56:29.821Z,1.90
2017-12-12T06:58:58.651Z,1.42
2017-12-12T07:01:27.687Z,1.12
2017-12-12T07:03:56.233Z,4.20
2017-12-12T07:06:24.754Z,1.40
2017-12-12T07:08:52.963Z,5.85
2017-12-12T07:11:22.933Z,3.75
2017-12-12T07:13:51.453Z,1.80
2017-12-12T07:16:19.969Z,1.35
2017-12-12T07:18:48.169Z,1.10
2017-12-12T07:21:17.098Z,1.20
2017-12-12T07:23:45.936Z,1.30
2017-12-12T08:57:14.658Z,4.70
2017-12-12T08:59:43.498Z,2.60
2017-12-12T09:02:12.342Z,1.30
